Time;durP1;ratioP1;P1;durP2;ratioP2;P2;SDS_P1;SDS_P2;PMS_P1;PMS_P2;Temp;Humidity;BMP_temperature;BMP_pressure;BME280_temperature;BME280_humidity;BME280_pressure;Samples;Min_cycle;Max_cycle;Signal;HPM_P1;HPM_P2
2022/08/12 00:45:02;;;;;;;9.40;5.67;;;;;;;11.64;100.00;98566.89;1655044;85;21057;-81
2022/08/12 00:47:29;;;;;;;8.40;5.83;;;;;;;11.62;100.00;98564.97;1727441;82;21074;-85
2022/08/12 00:49:55;;;;;;;8.00;5.65;;;;;;;11.57;100.00;98566.63;1681217;83;21037;-85
2022/08/12 00:52:21;;;;;;;6.67;5.83;;;;;;;11.55;100.00;98559.30;1720332;82;20947;-85
2022/08/12 00:54:56;;;;;;;9.20;6.50;;;;;;;11.55;100.00;98551.70;1721149;82;21022;-85
2022/08/12 00:57:35;;;;;;;10.08;6.92;;;;;;;11.54;100.00;98550.89;1721417;82;22114;-81
2022/08/12 01:00:11;;;;;;;7.03;5.30;;;;;;;11.54;100.00;98550.89;1722270;83;21070;-81
2022/08/12 01:02:42;;;;;;;7.75;5.33;;;;;;;11.47;100.00;98558.49;1724377;83;20967;-82
2022/08/12 01:13:30;;;;;;;9.15;5.37;;;;;;;11.13;100.00;98547.36;1670164;85;21479;-86
2022/08/12 01:15:58;;;;;;;11.70;6.03;;;;;;;11.09;100.00;98544.09;1678000;85;21258;-85
2022/08/12 01:18:27;;;;;;;6.55;5.12;;;;;;;11.08;100.00;98546.53;1677887;85;21109;-85
2022/08/12 01:21:10;;;;;;;11.88;5.83;;;;;;;11.02;100.00;98537.57;1673064;85;21017;-81
2022/08/12 01:24:01;;;;;;;10.72;6.00;;;;;;;11.03;100.00;98544.65;1672450;85;21104;-81
2022/08/12 01:26:27;;;;;;;13.78;6.53;;;;;;;11.05;100.00;98549.80;1709353;82;21459;-85
2022/08/12 01:28:57;;;;;;;10.60;6.30;;;;;;;11.08;100.00;98539.21;1722360;82;21332;-85
2022/08/12 01:31:25;;;;;;;13.45;6.50;;;;;;;11.12;100.00;98543.03;1725864;82;21039;-82
2022/08/12 01:34:05;;;;;;;12.20;6.67;;;;;;;11.16;100.00;98546.00;1692376;84;21158;-85
2022/08/12 01:36:43;;;;;;;15.38;6.85;;;;;;;11.19;100.00;98545.45;1692475;84;21491;-82
2022/08/12 01:39:09;;;;;;;12.15;6.78;;;;;;;11.23;100.00;98545.19;1691456;84;21055;-81
2022/08/12 01:41:49;;;;;;;12.07;8.08;;;;;;;11.26;100.00;98550.06;1671953;84;21290;-85
2022/08/12 01:44:15;;;;;;;10.88;6.92;;;;;;;11.26;100.00;98558.20;1727455;82;21432;-86
2022/08/12 01:47:02;;;;;;;11.22;7.00;;;;;;;11.27;100.00;98553.05;1692199;84;21566;-81
2022/08/12 01:50:04;;;;;;;10.25;6.83;;;;;;;11.27;100.00;98548.98;1671984;84;21141;-81
2022/08/12 01:52:56;;;;;;;11.00;6.67;;;;;;;11.26;100.00;98544.64;1676311;85;21089;-82
2022/08/12 01:55:46;;;;;;;8.20;6.37;;;;;;;11.25;100.00;98550.61;1721122;82;21022;-84
2022/08/12 02:01:26;;;;;;;6.05;4.95;;;;;;;11.19;100.00;98552.23;1713398;81;22210;-82
2022/08/12 02:14:13;;;;;;;8.40;6.03;;;;;;;10.96;100.00;98544.09;1722632;82;21004;-86
2022/08/12 02:16:59;;;;;;;8.80;5.92;;;;;;;11.03;100.00;98539.23;1726786;83;21097;-85
2022/08/12 02:19:45;;;;;;;9.23;6.22;;;;;;;11.01;100.00;98546.80;1684347;83;21528;-81
2022/08/12 02:22:37;;;;;;;10.28;7.22;;;;;;;10.95;100.00;98539.22;1733591;82;21469;-84
2022/08/12 02:25:16;;;;;;;13.08;5.95;;;;;;;10.93;100.00;98543.25;1727999;81;21122;-81
2022/08/12 02:27:45;;;;;;;13.35;6.58;;;;;;;10.89;100.00;98546.25;1727674;83;21090;-82
2022/08/12 02:30:18;;;;;;;11.48;6.60;;;;;;;10.85;100.00;98542.42;1726774;82;21113;-85
2022/08/12 02:32:45;;;;;;;9.90;5.78;;;;;;;10.80;100.00;98541.89;1692026;84;21006;-82
2022/08/12 02:35:16;;;;;;;7.72;6.17;;;;;;;10.71;100.00;98548.92;1727514;82;21057;-85
2022/08/12 02:37:42;;;;;;;6.65;5.42;;;;;;;10.68;100.00;98549.44;1727610;83;21238;-82
2022/08/12 02:40:11;;;;;;;8.03;5.58;;;;;;;10.67;100.00;98547.27;1726561;83;21841;-85
2022/08/12 02:42:38;;;;;;;6.95;5.17;;;;;;;10.66;100.00;98541.58;1672530;85;21180;-82
2022/08/12 02:45:07;;;;;;;9.90;6.17;;;;;;;10.67;100.00;98545.11;1653740;85;21338;-85
2022/08/12 02:47:36;;;;;;;7.62;5.62;;;;;;;10.63;100.00;98538.06;1662572;85;21577;-85
2022/08/12 02:50:02;;;;;;;;;;;;;;;10.62;100.00;98541.05;1729098;81;21550;-85
2022/08/12 02:52:28;;;;;;;7.33;5.83;;;;;;;10.59;100.00;98537.49;1726815;82;20425;-85
2022/08/12 02:55:00;;;;;;;8.68;4.75;;;;;;;10.56;100.00;98541.56;1703827;83;20961;-82
2022/08/12 02:57:26;;;;;;;8.13;5.20;;;;;;;10.52;100.00;98539.13;1730327;82;21068;-82
2022/08/12 02:59:52;;;;;;;7.25;5.03;;;;;;;10.48;100.00;98531.78;1729199;82;20979;-82
2022/08/12 03:02:20;;;;;;;7.12;5.00;;;;;;;10.47;100.00;98536.38;1674115;83;21125;-82
2022/08/12 03:04:51;;;;;;;8.43;5.28;;;;;;;10.46;100.00;98538.83;1709107;83;21129;-81
2022/08/12 03:07:21;;;;;;;6.95;5.12;;;;;;;10.41;100.00;98534.19;1696518;82;21050;-85
2022/08/12 03:09:54;;;;;;;8.00;5.58;;;;;;;10.39;100.00;98536.90;1700221;83;21049;-85
2022/08/12 03:12:20;;;;;;;11.15;5.00;;;;;;;10.40;100.00;98536.63;1720689;82;21101;-85
2022/08/12 03:14:46;;;;;;;8.43;4.95;;;;;;;10.40;100.00;98537.98;1720582;82;21061;-85
2022/08/12 03:17:36;;;;;;;9.75;4.85;;;;;;;10.34;100.00;98537.71;1720972;83;20887;-85
2022/08/12 03:20:04;;;;;;;10.10;5.37;;;;;;;10.37;100.00;98535.00;1725701;82;21438;-85
2022/08/12 03:22:30;;;;;;;6.50;4.30;;;;;;;10.27;100.00;98525.49;1701952;83;20993;-85
2022/08/12 03:24:57;;;;;;;6.55;5.20;;;;;;;10.34;100.00;98534.16;1718300;83;21507;-81
2022/08/12 03:27:23;;;;;;;7.10;5.97;;;;;;;10.37;100.00;98529.59;1727839;82;21150;-86
2022/08/12 03:29:49;;;;;;;6.42;5.55;;;;;;;10.37;100.00;98529.59;1725352;83;20859;-81
2022/08/12 03:32:15;;;;;;;10.28;5.60;;;;;;;10.45;100.00;98534.48;1726684;82;21117;-85
2022/08/12 03:34:41;;;;;;;6.90;5.28;;;;;;;10.49;100.00;98532.05;1695624;83;21249;-85
2022/08/12 03:37:09;;;;;;;7.28;5.40;;;;;;;10.44;100.00;98522.03;1727824;83;22078;-85
2022/08/12 03:42:16;;;;;;;11.35;5.83;;;;;;;10.47;100.00;98527.45;1691970;84;21006;-82
2022/08/12 04:01:24;;;;;;;11.05;5.85;;;;;;;10.30;100.00;98530.37;1727644;82;21029;-84
2022/08/12 04:03:51;;;;;;;9.73;4.85;;;;;;;10.22;100.00;98518.66;1724540;82;21148;-81
2022/08/12 04:06:28;;;;;;;10.03;5.08;;;;;;;10.29;100.00;98522.78;1720241;83;21034;-81
2022/08/12 04:08:56;;;;;;;8.88;6.03;;;;;;;10.27;100.00;98522.24;1723166;81;21044;-82
2022/08/12 04:14:19;;;;;;;6.78;5.03;;;;;;;10.42;100.00;98526.88;1678709;83;21035;-85
2022/08/12 04:16:47;;;;;;;5.83;4.58;;;;;;;10.42;100.00;98526.88;1673996;84;21081;-82
2022/08/12 04:19:14;;;;;;;6.58;4.95;;;;;;;10.50;100.00;98530.42;1708737;81;21117;-85
2022/08/12 04:21:40;;;;;;;9.43;5.05;;;;;;;10.49;100.00;98534.76;1720251;82;21089;-85
2022/08/12 04:24:06;;;;;;;8.43;5.25;;;;;;;10.51;100.00;98537.50;1723457;82;21046;-85
2022/08/12 04:26:34;;;;;;;8.18;5.47;;;;;;;10.57;100.00;98543.19;1722173;82;21526;-81
2022/08/12 04:29:00;;;;;;;7.25;5.42;;;;;;;10.64;100.00;98538.33;1719085;82;21469;-85
2022/08/12 04:31:35;;;;;;;12.07;5.75;;;;;;;10.74;100.00;98537.53;1718494;82;21957;-83
2022/08/12 04:34:02;;;;;;;8.35;6.12;;;;;;;10.84;100.00;98542.97;1718465;82;21011;-85
2022/08/12 04:36:29;;;;;;;7.10;4.72;;;;;;;10.90;100.00;98537.02;1718914;82;21063;-86
2022/08/12 04:38:56;;;;;;;6.55;5.30;;;;;;;10.97;100.00;98544.36;1714534;82;21174;-82
2022/08/12 04:41:23;;;;;;;6.22;4.62;;;;;;;11.03;100.00;98542.48;1719895;82;21036;-81
2022/08/12 04:43:50;;;;;;;5.95;4.05;;;;;;;11.12;100.00;98549.81;1721534;82;21369;-85
2022/08/12 04:46:16;;;;;;;7.50;4.60;;;;;;;11.12;100.00;98552.52;1725801;81;21129;-85
2022/08/12 04:48:42;;;;;;;6.00;4.55;;;;;;;11.13;100.00;98558.21;1722371;81;20908;-81
2022/08/12 04:51:08;;;;;;;7.03;4.83;;;;;;;11.23;100.00;98558.76;1687674;83;21166;-81
2022/08/12 04:53:34;;;;;;;5.97;4.50;;;;;;;11.32;100.00;98561.75;1692879;82;20981;-81
2022/08/12 04:56:00;;;;;;;7.08;4.62;;;;;;;11.34;100.00;98556.31;1724292;82;21869;-81
2022/08/12 04:58:27;;;;;;;5.92;4.58;;;;;;;11.43;100.00;98554.67;1712530;82;20986;-82
2022/08/12 05:00:53;;;;;;;10.13;5.17;;;;;;;11.53;100.00;98562.81;1720715;82;21002;-81
2022/08/12 05:03:19;;;;;;;8.35;5.20;;;;;;;11.55;100.00;98555.78;1724113;82;21019;-82
2022/08/12 05:05:45;;;;;;;6.33;4.83;;;;;;;11.55;100.00;98561.20;1725638;82;20927;-82
2022/08/12 05:08:14;;;;;;;8.00;5.12;;;;;;;11.57;100.00;98561.19;1676091;83;21052;-85
2022/08/12 05:10:41;;;;;;;;;;;;;;;11.60;100.00;98555.75;1720283;81;21047;-86
2022/08/12 05:13:10;;;;;;;5.58;4.10;;;;;;;11.59;100.00;98561.73;1718091;82;20230;-81
2022/08/12 05:15:37;;;;;;;6.10;4.75;;;;;;;11.63;100.00;98558.48;1683552;82;21711;-85
2022/08/12 05:18:04;;;;;;;6.70;5.08;;;;;;;11.67;100.00;98552.77;1712296;81;21034;-86
2022/08/12 05:20:30;;;;;;;8.60;6.60;;;;;;;11.75;100.00;98555.73;1720231;81;21153;-85
2022/08/12 05:23:13;;;;;;;8.65;5.60;;;;;;;11.90;100.00;98551.41;1717742;82;20921;-82
2022/08/12 05:25:41;;;;;;;6.40;4.97;;;;;;;12.04;100.00;98545.64;1718407;82;21501;-81
2022/08/12 05:28:08;;;;;;;7.33;4.78;;;;;;;12.11;100.00;98547.53;1720747;82;21015;-86
2022/08/12 05:30:34;;;;;;;8.28;5.10;;;;;;;12.14;100.00;98539.66;1698164;82;21531;-81
2022/08/12 05:33:04;;;;;;;9.20;5.10;;;;;;;12.24;100.00;98545.59;1680536;83;21123;-83
2022/08/12 05:35:35;;;;;;;5.45;4.67;;;;;;;12.30;100.00;98549.09;1657327;85;21054;-86
2022/08/12 05:40:44;;;;;;;6.20;5.55;;;;;;;12.52;100.00;98543.30;1721365;81;21097;-85
2022/08/12 05:43:11;;;;;;;5.05;4.50;;;;;;;12.75;100.00;98547.27;1671896;84;49086;-85
2022/08/12 05:45:37;;;;;;;8.18;4.40;;;;;;;12.92;100.00;98555.86;1687788;83;22087;-82
2022/08/12 05:48:05;;;;;;;5.28;4.10;;;;;;;13.05;100.00;98548.96;1718278;81;20898;-81
2022/08/12 05:50:31;;;;;;;5.80;4.40;;;;;;;13.20;100.00;98555.69;1726423;81;22133;-86
2022/08/12 05:52:57;;;;;;;4.60;3.80;;;;;;;13.19;100.00;98559.48;1692577;84;21029;-85
2022/08/12 05:55:23;;;;;;;4.80;4.30;;;;;;;13.31;100.00;98557.78;1721889;81;20904;-85
2022/08/12 05:57:54;;;;;;;7.03;4.83;;;;;;;13.46;100.00;98554.94;1687723;83;20946;-85
2022/08/12 06:00:24;;;;;;;7.03;5.37;;;;;;;13.54;100.00;98560.58;1669593;83;21441;-86
2022/08/12 06:02:49;;;;;;;6.28;4.97;;;;;;;13.70;100.00;98557.73;1668799;83;21475;-86
2022/08/12 06:05:15;;;;;;;5.45;4.40;;;;;;;13.81;100.00;98554.61;1671087;85;21468;-85
2022/08/12 06:07:44;;;;;;;5.42;4.55;;;;;;;14.01;100.00;98560.39;1665793;84;21406;-82
2022/08/12 06:10:10;;;;;;;9.10;5.42;;;;;;;14.17;99.38;98559.67;1704908;81;21105;-85
2022/08/12 06:12:36;;;;;;;8.73;5.37;;;;;;;14.24;99.73;98557.42;1725682;81;21035;-86
2022/08/12 06:15:04;;;;;;;7.83;4.80;;;;;;;14.48;99.94;98556.62;1717467;81;21054;-85
2022/08/12 06:17:30;;;;;;;13.90;5.75;;;;;;;14.70;99.25;98557.42;1717440;81;21052;-82
2022/08/12 06:20:04;;;;;;;8.93;4.47;;;;;;;14.86;98.99;98560.20;1733291;81;21539;-82
2022/08/12 06:22:30;;;;;;;8.80;4.95;;;;;;;15.03;97.84;98561.05;1718774;81;21162;-85
2022/08/12 06:24:55;;;;;;;9.85;4.80;;;;;;;15.22;97.79;98563.23;1685200;83;21114;-83
2022/08/12 06:27:21;;;;;;;6.03;4.12;;;;;;;15.37;97.08;98558.88;1682228;83;20902;-82
2022/08/12 06:29:48;;;;;;;4.85;3.92;;;;;;;15.59;97.31;98565.09;1683690;83;20895;-82
2022/08/12 06:32:15;;;;;;;4.67;4.00;;;;;;;15.77;96.62;98559.34;1679357;83;21071;-82
2022/08/12 06:34:41;;;;;;;4.78;3.90;;;;;;;15.94;95.22;98558.77;1659650;84;22206;-86
2022/08/12 06:37:08;;;;;;;5.92;4.05;;;;;;;16.10;95.16;98553.83;1676104;84;21193;-82
2022/08/12 06:39:34;;;;;;;5.22;4.65;;;;;;;16.16;93.22;98555.36;1666097;83;21176;-82
2022/08/12 06:44:45;;;;;;;4.15;3.15;;;;;;;16.45;91.88;98553.12;1677903;83;21136;-85
2022/08/12 06:47:11;;;;;;;5.20;3.17;;;;;;;16.62;88.70;98551.94;1679938;84;20999;-82
2022/08/12 06:49:37;;;;;;;4.83;3.17;;;;;;;16.76;88.47;98551.15;1726764;82;20848;-85
2022/08/12 06:52:03;;;;;;;5.42;4.22;;;;;;;16.96;89.97;98540.30;1688340;83;20927;-82
2022/08/12 06:54:29;;;;;;;4.85;3.45;;;;;;;17.46;90.59;98543.19;1661213;84;22222;-86
2022/08/12 06:56:56;;;;;;;4.87;3.65;;;;;;;18.06;90.92;98540.58;1653501;84;21132;-82
2022/08/12 06:59:22;;;;;;;4.05;3.45;;;;;;;18.50;87.01;98541.53;1691182;84;21293;-86
2022/08/12 07:01:48;;;;;;;4.62;3.22;;;;;;;18.65;88.42;98545.77;1647120;85;21120;-86
2022/08/12 07:04:14;;;;;;;3.62;3.02;;;;;;;18.70;86.85;98538.20;1700516;82;21066;-86
2022/08/12 07:06:41;;;;;;;3.25;2.60;;;;;;;19.02;86.66;98536.16;1722569;81;21137;-82
2022/08/12 07:09:07;;;;;;;3.33;3.02;;;;;;;19.04;84.91;98540.19;1736002;81;21096;-87
2022/08/12 07:11:32;;;;;;;5.33;4.05;;;;;;;19.12;83.66;98541.32;1725810;82;21118;-82
2022/08/12 07:14:00;;;;;;;4.90;3.72;;;;;;;19.12;81.57;98541.32;1727837;82;20872;-83
2022/08/12 07:16:51;;;;;;;5.00;2.90;;;;;;;19.49;81.61;98540.43;1678472;83;21181;-83
2022/08/12 07:18:55;;;;;;;5.10;3.25;;;;;;;20.10;80.98;98543.30;1701021;81;22240;-87
2022/08/12 07:21:21;;;;;;;6.40;3.30;;;;;;;20.59;78.18;98534.08;1721518;81;21111;-83
2022/08/12 07:23:49;;;;;;;4.80;3.60;;;;;;;21.19;77.47;98528.71;1696576;81;21895;-86
2022/08/12 07:26:15;;;;;;;6.22;3.40;;;;;;;21.69;76.01;98539.63;1730762;81;21097;-87
2022/08/12 07:28:42;;;;;;;4.35;3.37;;;;;;;22.06;72.11;98536.16;1739305;81;21045;-87
2022/08/12 07:31:11;;;;;;;3.75;2.62;;;;;;;22.54;75.60;98535.39;1720426;81;21001;-82
2022/08/12 07:33:39;;;;;;;6.15;3.50;;;;;;;23.22;75.29;98531.96;1726617;81;21074;-83
2022/08/12 07:36:12;;;;;;;4.10;3.00;;;;;;;23.30;67.82;98529.63;1720148;81;21901;-83
2022/08/12 07:38:46;;;;;;;4.90;2.90;;;;;;;23.48;66.40;98524.60;1722844;81;21101;-83
2022/08/12 07:41:26;;;;;;;7.37;2.75;;;;;;;23.95;69.77;98519.78;1719098;82;21054;-88
2022/08/12 07:43:55;;;;;;;3.90;3.17;;;;;;;24.54;68.96;98516.14;1714297;81;21596;-87
2022/08/12 07:46:35;;;;;;;5.33;2.87;;;;;;;25.07;68.79;98515.17;1720136;81;21034;-87
2022/08/12 07:49:06;;;;;;;5.92;3.70;;;;;;;24.87;60.27;98508.20;1719981;82;21152;-83
2022/08/12 07:51:32;;;;;;;4.37;2.40;;;;;;;25.00;63.18;98508.27;1721556;81;21013;-88
2022/08/12 07:53:59;;;;;;;3.30;2.70;;;;;;;24.04;61.80;98517.06;1716289;82;20922;-87
2022/08/12 07:56:26;;;;;;;3.75;2.60;;;;;;;23.40;62.56;98521.41;1736092;81;21033;-83
2022/08/12 07:58:52;;;;;;;4.90;2.52;;;;;;;23.51;64.88;98510.89;1740408;80;21653;-83
2022/08/12 08:01:20;;;;;;;4.30;2.85;;;;;;;23.23;65.23;98505.92;1692736;83;21164;-87
2022/08/12 08:06:30;;;;;;;3.25;2.40;;;;;;;24.67;65.85;98507.92;1686244;83;21089;-83
2022/08/12 08:08:59;;;;;;;3.83;2.35;;;;;;;25.45;61.57;98501.29;1725187;82;21033;-84
2022/08/12 08:14:09;;;;;;;2.72;2.17;;;;;;;26.64;56.16;98504.98;1722270;81;21502;-88
2022/08/12 08:16:37;;;;;;;3.98;2.25;;;;;;;27.20;57.44;98496.66;1729275;82;21109;-83
2022/08/12 08:19:03;;;;;;;5.00;1.85;;;;;;;27.43;50.03;98499.89;1676138;84;21057;-88
2022/08/12 08:21:31;;;;;;;4.30;1.70;;;;;;;27.48;49.19;98490.63;1725905;81;21512;-88
2022/08/12 08:24:13;;;;;;;5.95;1.47;;;;;;;27.61;48.03;98485.61;1734591;81;21097;-84
2022/08/12 08:26:47;;;;;;;2.80;1.70;;;;;;;28.27;48.91;98490.00;1683435;83;21659;-83
2022/08/12 08:29:15;;;;;;;3.45;1.60;;;;;;;28.84;47.69;98487.05;1658337;85;21110;-84
2022/08/12 08:31:42;;;;;;;2.13;1.77;;;;;;;29.12;44.45;98481.44;1694663;83;21077;-88
2022/08/12 08:34:10;;;;;;;2.30;1.77;;;;;;;29.98;46.82;98480.48;1714398;81;21069;-84
2022/08/12 08:36:38;;;;;;;;;;;;;;;30.10;43.38;98469.56;1729939;81;21033;-89
2022/08/12 08:39:06;;;;;;;3.52;1.62;;;;;;;30.31;39.99;98467.36;1712467;81;21138;-89
2022/08/12 08:44:17;;;;;;;2.92;2.00;;;;;;;30.80;40.39;98483.89;1715542;81;21641;-88
2022/08/12 08:46:43;;;;;;;3.02;1.47;;;;;;;31.58;41.08;98480.00;1715910;81;21109;-88
2022/08/12 08:49:10;;;;;;;2.02;1.35;;;;;;;30.60;37.58;98485.70;1710996;82;21477;-84
2022/08/12 08:51:37;;;;;;;3.27;2.37;;;;;;;29.92;40.22;98472.33;1718847;81;21768;-84
2022/08/12 08:54:10;;;;;;;5.83;2.42;;;;;;;29.53;40.95;98482.61;1726713;81;27043;-84
2022/08/12 08:56:41;;;;;;;4.22;2.42;;;;;;;26.86;45.89;98479.10;1691449;82;21136;-88
2022/08/12 08:59:01;;;;;;;3.20;1.85;;;;;;;28.01;44.50;98482.03;1711239;82;21458;-88
2022/08/12 09:01:29;;;;;;;3.90;1.98;;;;;;;28.01;44.82;98484.81;1681888;84;20932;-88
2022/08/12 09:03:55;;;;;;;;;;;;;;;27.28;45.54;98477.28;1717428;81;21899;-87
2022/08/12 09:06:22;;;;;;;6.37;2.33;;;;;;;25.59;49.33;98477.98;1718653;81;20213;-87
2022/08/12 09:08:48;;;;;;;2.90;2.00;;;;;;;28.05;45.88;98478.70;1689548;83;21133;-87
2022/08/12 09:13:59;;;;;;;3.30;1.90;;;;;;;29.87;40.43;98474.70;1677692;84;21550;-89
2022/08/12 09:16:24;;;;;;;2.45;2.00;;;;;;;29.83;39.95;98462.74;1718905;83;21138;-86
2022/08/12 09:18:51;;;;;;;4.87;2.00;;;;;;;29.07;41.23;98468.67;1701893;82;20914;-87
2022/08/12 09:21:16;;;;;;;3.00;1.85;;;;;;;30.16;40.35;98477.73;1721358;81;21041;-88
2022/08/12 09:23:42;;;;;;;3.47;2.22;;;;;;;31.16;38.82;98481.77;1725144;81;21691;-84
2022/08/12 09:26:08;;;;;;;6.00;1.90;;;;;;;29.91;39.23;98478.28;1718946;81;21180;-84
2022/08/12 09:28:35;;;;;;;4.33;2.12;;;;;;;31.65;37.61;98482.77;1716836;81;21493;-89
2022/08/12 09:31:03;;;;;;;3.65;1.90;;;;;;;30.86;36.89;98479.48;1717945;81;21001;-89
2022/08/12 09:33:32;;;;;;;2.80;1.67;;;;;;;31.60;35.48;98476.18;1715184;81;21071;-90
2022/08/12 09:35:56;;;;;;;5.62;1.90;;;;;;;31.56;36.64;98480.42;1729472;81;21536;-85
2022/08/12 09:38:23;;;;;;;4.33;1.62;;;;;;;31.23;36.59;98479.58;1729621;81;22322;-84
2022/08/12 09:40:49;;;;;;;3.55;1.70;;;;;;;30.33;37.11;98475.53;1723428;81;21152;-84
2022/08/12 09:46:00;;;;;;;2.87;1.90;;;;;;;31.15;36.30;98473.98;1665646;83;21066;-84
2022/08/12 09:48:26;;;;;;;1.50;1.37;;;;;;;32.66;33.69;98481.61;1663598;84;21327;-84
2022/08/12 09:50:53;;;;;;;2.17;1.52;;;;;;;32.23;33.35;98479.17;1672422;83;21042;-84
2022/08/12 09:53:24;;;;;;;2.00;1.62;;;;;;;32.80;32.77;98468.81;1671970;84;21979;-84
2022/08/12 09:55:56;;;;;;;2.55;1.40;;;;;;;34.37;32.70;98481.38;1661278;84;21092;-84
2022/08/12 09:58:27;;;;;;;3.85;1.50;;;;;;;32.82;32.31;98480.44;1665933;84;21430;-85
2022/08/12 10:00:53;;;;;;;4.58;1.70;;;;;;;32.91;31.59;98481.38;1664471;84;21045;-84
2022/08/12 10:03:20;;;;;;;1.60;1.30;;;;;;;31.62;33.99;98468.16;1682510;84;21084;-85
2022/08/12 10:05:47;;;;;;;4.95;1.50;;;;;;;33.52;30.85;98475.83;1672575;84;21050;-84
2022/08/12 10:08:15;;;;;;;1.32;1.22;;;;;;;33.34;31.23;98472.44;1672091;84;21009;-85
2022/08/12 10:13:40;;;;;;;3.27;1.60;;;;;;;31.57;33.42;98456.80;1669751;84;21081;-85
2022/08/12 10:16:16;;;;;;;2.35;1.45;;;;;;;31.72;33.96;98468.72;1682881;83;21083;-85
2022/08/12 10:18:52;;;;;;;2.17;1.40;;;;;;;32.52;33.65;98464.92;1687030;83;22139;-85
2022/08/12 10:21:25;;;;;;;3.15;1.55;;;;;;;32.40;33.62;98471.85;1681605;83;20977;-85
2022/08/12 10:23:52;;;;;;;4.25;1.42;;;;;;;31.73;33.25;98463.31;1714674;81;20950;-84
2022/08/12 10:31:50;;;;;;;4.25;1.55;;;;;;;34.51;30.33;98450.20;1721212;82;21488;-87
2022/08/12 10:34:18;;;;;;;1.85;1.32;;;;;;;33.80;29.79;98446.52;1698130;82;21025;-85
2022/08/12 10:36:45;;;;;;;2.37;1.47;;;;;;;34.25;29.76;98437.77;1723500;81;21032;-87
2022/08/12 10:39:13;;;;;;;2.70;1.45;;;;;;;34.26;30.47;98435.75;1741839;80;21070;-87
2022/08/12 10:44:24;;;;;;;2.20;1.80;;;;;;;33.71;30.09;98437.83;1687218;83;21069;-87
2022/08/12 10:46:54;;;;;;;3.52;1.60;;;;;;;33.23;31.66;98447.90;1722326;80;20981;-88
2022/08/12 10:49:18;;;;;;;2.20;1.62;;;;;;;34.14;30.08;98437.97;1686076;82;21185;-87
2022/08/12 10:51:47;;;;;;;3.47;1.67;;;;;;;31.56;33.23;98441.21;1721412;81;21053;-85
2022/08/12 10:54:13;;;;;;;1.90;1.55;;;;;;;31.83;33.98;98445.66;1724132;81;21128;-87
2022/08/12 10:56:39;;;;;;;2.55;1.98;;;;;;;31.61;34.59;98436.56;1690676;83;21028;-87
2022/08/12 10:59:05;;;;;;;2.98;2.60;;;;;;;30.06;36.81;98425.42;1722329;81;21038;-87
2022/08/12 11:01:32;;;;;;;3.15;1.90;;;;;;;29.40;38.70;98434.11;1722016;81;21598;-84
2022/08/12 11:04:02;;;;;;;4.75;2.00;;;;;;;27.86;41.19;98432.16;1716759;81;21692;-87
2022/08/12 11:06:28;;;;;;;2.83;2.00;;;;;;;27.43;41.62;98421.98;1718307;81;21113;-86
2022/08/12 11:08:55;;;;;;;6.40;2.83;;;;;;;26.62;44.52;98430.33;1725780;81;21203;-84
2022/08/12 11:11:21;;;;;;;2.80;2.57;;;;;;;26.39;44.74;98430.39;1672679;83;21593;-84
2022/08/12 11:13:47;;;;;;;7.78;2.35;;;;;;;25.63;48.09;98433.65;1682577;83;21054;-85
2022/08/12 11:16:16;;;;;;;3.80;3.05;;;;;;;25.76;48.08;98423.21;1718202;81;20940;-84
2022/08/12 11:18:41;;;;;;;3.37;2.80;;;;;;;25.20;49.25;98420.95;1724410;81;21046;-86
2022/08/12 11:21:07;;;;;;;4.65;2.92;;;;;;;24.53;51.97;98430.85;1727441;81;21869;-86
2022/08/12 11:23:33;;;;;;;5.55;2.67;;;;;;;24.40;52.31;98432.13;1739785;81;21619;-86
2022/08/12 11:25:59;;;;;;;5.58;2.92;;;;;;;24.25;53.53;98435.69;1729005;81;20915;-86
2022/08/12 11:28:25;;;;;;;4.42;2.67;;;;;;;23.98;53.63;98438.80;1706320;81;20893;-84
2022/08/12 11:30:51;;;;;;;4.83;3.02;;;;;;;23.94;53.07;98433.20;1717479;81;21551;-83
2022/08/12 11:33:16;;;;;;;8.45;3.25;;;;;;;23.32;55.20;98436.88;1676800;83;21685;-83
2022/08/12 11:35:42;;;;;;;72.82;9.48;;;;;;;23.76;53.32;98425.84;1718576;81;20926;-87
2022/08/12 11:38:09;;;;;;;15.15;4.33;;;;;;;24.18;54.05;98428.02;1722897;81;21045;-84
2022/08/12 11:40:35;;;;;;;4.70;3.85;;;;;;;24.39;54.04;98423.02;1715306;81;21171;-83
2022/08/12 11:43:02;;;;;;;10.88;3.87;;;;;;;24.59;53.34;98428.58;1717322;81;21089;-83
2022/08/12 11:45:28;;;;;;;5.37;3.05;;;;;;;24.74;52.13;98420.22;1720262;81;21155;-84
2022/08/12 11:47:55;;;;;;;22.07;4.75;;;;;;;24.63;52.77;98419.78;1721208;81;21486;-83
2022/08/12 11:50:22;;;;;;;7.72;3.42;;;;;;;24.66;52.60;98407.97;1718532;81;21108;-86
2022/08/12 11:52:49;;;;;;;6.85;3.12;;;;;;;24.43;53.24;98416.96;1714593;81;21094;-86
2022/08/12 11:55:16;;;;;;;46.75;6.45;;;;;;;24.51;52.56;98412.97;1715965;81;21644;-84
2022/08/12 11:57:53;;;;;;;4.95;2.67;;;;;;;24.63;53.28;98416.42;1683645;83;21223;-86
2022/08/12 12:00:19;;;;;;;431.90;44.77;;;;;;;24.89;51.12;98424.69;1681784;83;21042;-83
2022/08/12 12:02:45;;;;;;;29.20;5.90;;;;;;;24.74;51.92;98418.84;1718798;81;20964;-84
2022/08/12 12:05:11;;;;;;;10.70;2.98;;;;;;;24.60;52.07;98420.48;1721964;81;21079;-86
2022/08/12 12:07:39;;;;;;;8.28;3.67;;;;;;;24.50;52.13;98415.52;1683233;83;21069;-86
2022/08/12 12:10:06;;;;;;;7.12;3.02;;;;;;;24.30;53.10;98418.81;1715200;82;21851;-86
2022/08/12 12:12:32;;;;;;;5.15;3.05;;;;;;;24.59;51.69;98414.73;1683532;84;20989;-86
2022/08/12 12:14:58;;;;;;;9.65;3.17;;;;;;;24.64;50.78;98412.48;1667302;84;20890;-84
2022/08/12 12:17:24;;;;;;;2.98;2.20;;;;;;;24.44;51.80;98410.28;1694272;83;20985;-83
2022/08/12 12:19:53;;;;;;;7.40;2.80;;;;;;;24.53;51.43;98407.89;1670691;84;21462;-83
2022/08/12 12:22:20;;;;;;;3.55;2.40;;;;;;;24.69;51.91;98401.09;1694427;82;21429;-86
2022/08/12 12:24:47;;;;;;;6.05;2.40;;;;;;;24.82;50.66;98397.62;1730300;81;21007;-84
2022/08/12 12:27:14;;;;;;;3.70;2.65;;;;;;;25.31;50.04;98399.22;1722903;82;21069;-86
2022/08/12 12:29:40;;;;;;;4.35;2.15;;;;;;;26.54;46.04;98398.66;1676131;83;21077;-84
2022/08/12 12:32:05;;;;;;;4.28;2.05;;;;;;;28.04;42.74;98397.73;1721961;81;20931;-84
2022/08/12 12:34:31;;;;;;;2.70;1.95;;;;;;;29.91;39.06;98394.48;1684126;83;21300;-84
2022/08/12 12:36:57;;;;;;;4.70;2.20;;;;;;;32.49;35.90;98398.45;1688940;83;21053;-84
2022/08/12 12:39:23;;;;;;;5.05;2.60;;;;;;;32.50;32.51;98394.44;1712151;81;20920;-87
2022/08/12 12:41:49;;;;;;;3.35;2.55;;;;;;;32.94;32.95;98393.54;1717055;81;20894;-85
2022/08/12 12:44:15;;;;;;;3.80;2.00;;;;;;;33.23;31.61;98393.16;1721175;81;20970;-87
2022/08/12 12:46:41;;;;;;;4.95;2.55;;;;;;;33.70;31.47;98384.27;1726161;81;21526;-88
2022/08/12 12:49:07;;;;;;;3.17;2.00;;;;;;;35.03;30.73;98384.25;1686317;83;21053;-85
2022/08/12 12:51:33;;;;;;;1.80;1.67;;;;;;;35.00;28.94;98382.32;1719371;81;21045;-84
2022/08/12 12:53:59;;;;;;;3.65;2.10;;;;;;;34.53;29.00;98377.44;1719854;82;21460;-84
2022/08/12 12:56:25;;;;;;;3.87;2.30;;;;;;;32.24;32.06;98377.05;1724032;81;20981;-87
2022/08/12 12:58:52;;;;;;;2.90;1.90;;;;;;;32.40;31.84;98371.52;1715155;81;20899;-85
2022/08/12 13:01:20;;;;;;;4.00;1.72;;;;;;;33.36;30.06;98372.55;1689452;82;21140;-88
2022/08/12 13:03:52;;;;;;;3.05;1.65;;;;;;;33.38;30.71;98376.33;1673882;83;21130;-88
2022/08/12 13:06:14;;;;;;;2.30;1.80;;;;;;;34.95;29.72;98373.00;1693772;83;22229;-87
2022/08/12 13:08:42;;;;;;;3.92;2.42;;;;;;;34.27;29.80;98364.23;1684947;83;21204;-88
2022/08/12 13:11:09;;;;;;;5.12;1.50;;;;;;;33.50;29.80;98366.51;1663155;84;21147;-85
2022/08/12 13:13:35;;;;;;;;;;;;;;;34.70;29.68;98362.23;1722779;83;21007;-85
2022/08/12 13:16:02;;;;;;;2.00;1.73;;;;;;;36.18;26.66;98358.43;1723356;82;20185;-87
2022/08/12 13:18:35;;;;;;;3.58;1.60;;;;;;;34.54;28.20;98362.15;1718478;81;21018;-88
2022/08/12 13:20:57;;;;;;;1.82;1.65;;;;;;;35.69;27.99;98352.80;1720541;81;20956;-88
2022/08/12 13:23:23;;;;;;;3.77;1.40;;;;;;;34.08;28.30;98364.38;1719796;81;21536;-87
2022/08/12 13:25:49;;;;;;;3.02;1.60;;;;;;;35.21;26.92;98345.05;1716462;81;20935;-85
2022/08/12 13:28:29;;;;;;;2.60;1.40;;;;;;;33.86;28.75;98352.09;1718525;81;20915;-84
2022/08/12 13:30:58;;;;;;;2.60;1.65;;;;;;;34.02;28.00;98352.06;1687611;83;21032;-87
2022/08/12 13:33:26;;;;;;;3.92;1.52;;;;;;;33.11;28.70;98348.21;1672883;85;21038;-87